LGX270 LIQL-LIDT
Flight info
| Callsign | LGX270 |
|---|---|
| Flight time | 0h 43m |
| Altitude | 18000 |
| Route | GAVRA IFR M726 LUMAV L12 VIC VFR |
| Aircraft | C525/L-SDFGRWY/S |
Departure
| Time | 2026-05-07 06:37 |
|---|---|
| Airport | Lucca-Tassignano Airport (LIQL) |
Arrival
| Time | 2026-05-07 07:20 |
|---|---|
| Airport | Trento-Mattarello Airport (LIDT) |
| Time | Latitude | Longitude | Altitude | Speed | Heading |
|---|---|---|---|---|---|
| 2026-05-07 06:29 | 43.82537 | 10.57672 | 31 ft | 0 kts | 141° |
| 2026-05-07 06:34 | 43.82537 | 10.57677 | 32 ft | 1 kts | 41° |
| 2026-05-07 06:35 | 43.82554 | 10.57644 | 32 ft | 7 kts | 278° |
| 2026-05-07 06:35 | 43.82560 | 10.57588 | 32 ft | 7 kts | 278° |
| 2026-05-07 06:35 | 43.82599 | 10.57597 | 32 ft | 8 kts | 346° |
| 2026-05-07 06:35 | 43.82618 | 10.57507 | 32 ft | 11 kts | 279° |
| 2026-05-07 06:36 | 43.82630 | 10.57389 | 32 ft | 12 kts | 279° |
| 2026-05-07 06:36 | 43.82636 | 10.57286 | 32 ft | 9 kts | 254° |
| 2026-05-07 06:36 | 43.82642 | 10.57285 | 32 ft | 3 kts | 100° |
| 2026-05-07 06:36 | 43.82641 | 10.57291 | 32 ft | 0 kts | 101° |
| 2026-05-07 06:37 | 43.82620 | 10.57474 | 32 ft | 57 kts | 98° |
| 2026-05-07 06:37 | 43.82521 | 10.58321 | 202 ft | 103 kts | 101° |
| 2026-05-07 06:37 | 43.82352 | 10.59276 | 739 ft | 110 kts | 105° |
| 2026-05-07 06:37 | 43.82067 | 10.60353 | 1248 ft | 124 kts | 116° |
| 2026-05-07 06:38 | 43.81711 | 10.61353 | 1875 ft | 128 kts | 117° |
| 2026-05-07 06:38 | 43.81307 | 10.62573 | 2427 ft | 146 kts | 115° |
| 2026-05-07 06:38 | 43.80868 | 10.64052 | 2753 ft | 183 kts | 112° |
| 2026-05-07 06:38 | 43.80415 | 10.65700 | 3562 ft | 189 kts | 112° |
| 2026-05-07 06:39 | 43.79961 | 10.67395 | 4379 ft | 194 kts | 112° |
| 2026-05-07 06:39 | 43.79561 | 10.69175 | 5172 ft | 201 kts | 104° |
| 2026-05-07 06:39 | 43.79445 | 10.71109 | 5964 ft | 206 kts | 92° |
| 2026-05-07 06:39 | 43.79491 | 10.73089 | 6701 ft | 212 kts | 90° |
| 2026-05-07 06:40 | 43.79541 | 10.75130 | 7484 ft | 214 kts | 91° |
| 2026-05-07 06:40 | 43.79557 | 10.77180 | 8198 ft | 218 kts | 92° |
| 2026-05-07 06:40 | 43.79546 | 10.79252 | 8943 ft | 220 kts | 92° |
| 2026-05-07 06:40 | 43.79522 | 10.81371 | 9663 ft | 223 kts | 92° |
| 2026-05-07 06:41 | 43.79770 | 10.83451 | 10337 ft | 227 kts | 66° |
| 2026-05-07 06:41 | 43.80599 | 10.85294 | 11053 ft | 227 kts | 51° |
| 2026-05-07 06:41 | 43.81610 | 10.86984 | 11667 ft | 232 kts | 49° |
| 2026-05-07 06:41 | 43.82617 | 10.88711 | 12308 ft | 235 kts | 51° |
| 2026-05-07 06:42 | 43.83597 | 10.90553 | 12946 ft | 239 kts | 53° |
| 2026-05-07 06:42 | 43.84530 | 10.92429 | 13564 ft | 242 kts | 55° |
| 2026-05-07 06:42 | 43.85469 | 10.94378 | 14183 ft | 244 kts | 56° |
| 2026-05-07 06:42 | 43.86406 | 10.96345 | 14721 ft | 250 kts | 56° |
| 2026-05-07 06:43 | 43.87368 | 10.98367 | 15312 ft | 253 kts | 56° |
| 2026-05-07 06:43 | 43.88340 | 11.00410 | 15868 ft | 257 kts | 56° |
| 2026-05-07 06:43 | 43.89323 | 11.02473 | 16419 ft | 260 kts | 56° |
| 2026-05-07 06:43 | 43.90335 | 11.04598 | 16907 ft | 265 kts | 56° |
| 2026-05-07 06:44 | 43.91340 | 11.06709 | 17450 ft | 267 kts | 56° |
| 2026-05-07 06:44 | 43.92374 | 11.08883 | 17880 ft | 274 kts | 57° |
| 2026-05-07 06:44 | 43.93460 | 11.11168 | 18008 ft | 294 kts | 57° |
| 2026-05-07 06:44 | 43.94622 | 11.13615 | 18024 ft | 316 kts | 57° |
| 2026-05-07 06:45 | 43.95880 | 11.16268 | 18027 ft | 336 kts | 57° |
| 2026-05-07 06:45 | 43.97183 | 11.19013 | 18023 ft | 353 kts | 57° |
| 2026-05-07 06:45 | 43.98566 | 11.21933 | 18004 ft | 366 kts | 57° |
| 2026-05-07 06:45 | 43.99969 | 11.24898 | 18011 ft | 377 kts | 57° |
| 2026-05-07 06:46 | 44.01435 | 11.28000 | 18015 ft | 386 kts | 57° |
| 2026-05-07 06:46 | 44.02904 | 11.31110 | 18010 ft | 388 kts | 57° |
| 2026-05-07 06:46 | 44.04389 | 11.34258 | 17996 ft | 386 kts | 57° |
| 2026-05-07 06:46 | 44.05856 | 11.37369 | 18000 ft | 384 kts | 57° |
| 2026-05-07 06:47 | 44.07315 | 11.40467 | 17996 ft | 383 kts | 57° |
| 2026-05-07 06:47 | 44.08756 | 11.43533 | 17993 ft | 382 kts | 57° |
| 2026-05-07 06:47 | 44.10211 | 11.46630 | 17986 ft | 381 kts | 57° |
| 2026-05-07 06:47 | 44.11643 | 11.49682 | 17993 ft | 380 kts | 57° |
| 2026-05-07 06:48 | 44.13086 | 11.52761 | 17986 ft | 379 kts | 57° |
| 2026-05-07 06:48 | 44.14529 | 11.55844 | 17978 ft | 379 kts | 57° |
| 2026-05-07 06:48 | 44.15947 | 11.58877 | 17973 ft | 378 kts | 57° |
| 2026-05-07 06:48 | 44.17381 | 11.61946 | 17982 ft | 377 kts | 57° |
| 2026-05-07 06:49 | 44.18805 | 11.64995 | 17979 ft | 377 kts | 57° |
| 2026-05-07 06:49 | 44.20352 | 11.67966 | 17980 ft | 376 kts | 51° |
| 2026-05-07 06:49 | 44.22207 | 11.70506 | 17981 ft | 375 kts | 38° |
| 2026-05-07 06:49 | 44.24401 | 11.72384 | 17979 ft | 372 kts | 23° |
| 2026-05-07 06:50 | 44.26854 | 11.73486 | 17982 ft | 370 kts | 8° |
| 2026-05-07 06:50 | 44.29416 | 11.73789 | 17985 ft | 366 kts | 355° |
| 2026-05-07 06:50 | 44.31914 | 11.73368 | 17986 ft | 361 kts | 343° |
| 2026-05-07 06:50 | 44.34301 | 11.72439 | 17980 ft | 360 kts | 337° |
| 2026-05-07 06:51 | 44.36700 | 11.71369 | 17973 ft | 361 kts | 338° |
| 2026-05-07 06:51 | 44.39131 | 11.70402 | 17976 ft | 364 kts | 340° |
| 2026-05-07 06:51 | 44.41586 | 11.69627 | 17981 ft | 366 kts | 344° |
| 2026-05-07 06:51 | 44.44136 | 11.69007 | 17963 ft | 368 kts | 347° |
| 2026-05-07 06:52 | 44.46664 | 11.68511 | 17965 ft | 369 kts | 348° |
| 2026-05-07 06:52 | 44.49198 | 11.68065 | 17976 ft | 369 kts | 348° |
| 2026-05-07 06:52 | 44.51742 | 11.67621 | 17974 ft | 369 kts | 348° |
| 2026-05-07 06:52 | 44.54281 | 11.67160 | 17974 ft | 366 kts | 348° |
| 2026-05-07 06:53 | 44.56778 | 11.66684 | 17963 ft | 360 kts | 347° |
| 2026-05-07 06:53 | 44.59253 | 11.66192 | 17962 ft | 356 kts | 347° |
| 2026-05-07 06:53 | 44.61669 | 11.65700 | 17954 ft | 352 kts | 347° |
| 2026-05-07 06:53 | 44.64087 | 11.65199 | 17975 ft | 352 kts | 347° |
| 2026-05-07 06:54 | 44.66531 | 11.64691 | 17972 ft | 353 kts | 347° |
| 2026-05-07 06:54 | 44.68944 | 11.64191 | 17981 ft | 353 kts | 347° |
| 2026-05-07 06:54 | 44.71395 | 11.63687 | 17970 ft | 354 kts | 347° |
| 2026-05-07 06:54 | 44.73804 | 11.63194 | 17975 ft | 354 kts | 347° |
| 2026-05-07 06:55 | 44.76260 | 11.62694 | 17982 ft | 354 kts | 347° |
| 2026-05-07 06:55 | 44.78678 | 11.62201 | 17976 ft | 355 kts | 347° |
| 2026-05-07 06:55 | 44.81139 | 11.61734 | 17976 ft | 356 kts | 349° |
| 2026-05-07 06:55 | 44.83608 | 11.61455 | 17971 ft | 358 kts | 353° |
| 2026-05-07 06:56 | 44.86093 | 11.61470 | 17969 ft | 360 kts | 359° |
| 2026-05-07 06:56 | 44.88613 | 11.61729 | 17966 ft | 361 kts | 1° |
| 2026-05-07 06:56 | 44.91100 | 11.62076 | 17968 ft | 361 kts | 2° |
| 2026-05-07 06:56 | 44.93574 | 11.62417 | 17969 ft | 360 kts | 1° |
| 2026-05-07 06:57 | 44.96074 | 11.62711 | 17966 ft | 360 kts | 0° |
| 2026-05-07 06:57 | 44.98567 | 11.62948 | 17967 ft | 359 kts | 359° |
| 2026-05-07 06:57 | 45.01051 | 11.63141 | 17973 ft | 359 kts | 359° |
| 2026-05-07 06:57 | 45.03565 | 11.63313 | 17967 ft | 359 kts | 359° |
| 2026-05-07 06:58 | 45.06064 | 11.63476 | 17957 ft | 359 kts | 359° |
| 2026-05-07 06:58 | 45.08549 | 11.63642 | 17970 ft | 358 kts | 359° |
| 2026-05-07 06:58 | 45.11034 | 11.63814 | 17961 ft | 359 kts | 359° |
| 2026-05-07 06:58 | 45.13512 | 11.63992 | 17962 ft | 358 kts | 359° |
| 2026-05-07 06:59 | 45.16008 | 11.64177 | 17963 ft | 358 kts | 360° |
| 2026-05-07 06:59 | 45.18468 | 11.64359 | 17968 ft | 358 kts | 359° |
| 2026-05-07 06:59 | 45.20980 | 11.64542 | 17965 ft | 358 kts | 359° |
| 2026-05-07 06:59 | 45.23463 | 11.64721 | 17968 ft | 358 kts | 359° |
| 2026-05-07 07:00 | 45.25927 | 11.64898 | 17965 ft | 357 kts | 359° |
| 2026-05-07 07:00 | 45.28395 | 11.65075 | 17965 ft | 357 kts | 359° |
| 2026-05-07 07:00 | 45.30902 | 11.65255 | 17962 ft | 357 kts | 359° |
| 2026-05-07 07:00 | 45.33389 | 11.65434 | 17968 ft | 357 kts | 359° |
| 2026-05-07 07:01 | 45.35859 | 11.65612 | 17972 ft | 357 kts | 359° |
| 2026-05-07 07:01 | 45.38319 | 11.65790 | 17968 ft | 357 kts | 359° |
| 2026-05-07 07:01 | 45.40805 | 11.65970 | 17971 ft | 357 kts | 360° |
| 2026-05-07 07:01 | 45.43264 | 11.66148 | 17971 ft | 357 kts | 360° |
| 2026-05-07 07:02 | 45.45755 | 11.66328 | 17968 ft | 357 kts | 360° |
| 2026-05-07 07:02 | 45.48233 | 11.66508 | 17970 ft | 356 kts | 360° |
| 2026-05-07 07:02 | 45.50702 | 11.66688 | 17969 ft | 357 kts | 360° |
| 2026-05-07 07:02 | 45.53182 | 11.66868 | 17974 ft | 357 kts | 360° |
| 2026-05-07 07:03 | 45.55652 | 11.67047 | 17970 ft | 356 kts | 0° |
| 2026-05-07 07:03 | 45.58142 | 11.67229 | 17972 ft | 356 kts | 360° |
| 2026-05-07 07:03 | 45.60606 | 11.67384 | 17977 ft | 355 kts | 358° |
| 2026-05-07 07:03 | 45.63063 | 11.67176 | 17966 ft | 351 kts | 348° |
| 2026-05-07 07:04 | 45.65387 | 11.66277 | 17972 ft | 346 kts | 334° |
| 2026-05-07 07:04 | 45.67453 | 11.64586 | 17960 ft | 338 kts | 317° |
| 2026-05-07 07:04 | 45.68942 | 11.62069 | 17993 ft | 330 kts | 301° |
| 2026-05-07 07:04 | 45.70278 | 11.59396 | 17983 ft | 332 kts | 303° |
| 2026-05-07 07:05 | 45.71724 | 11.56841 | 17978 ft | 333 kts | 307° |
| 2026-05-07 07:05 | 45.73280 | 11.54423 | 17981 ft | 335 kts | 310° |
| 2026-05-07 07:05 | 45.74935 | 11.52032 | 17979 ft | 335 kts | 311° |
| 2026-05-07 07:05 | 45.76605 | 11.49694 | 17988 ft | 336 kts | 312° |
| 2026-05-07 07:06 | 45.78266 | 11.47385 | 17979 ft | 336 kts | 312° |
| 2026-05-07 07:06 | 45.79932 | 11.45067 | 17719 ft | 332 kts | 313° |
| 2026-05-07 07:06 | 45.81582 | 11.42769 | 17447 ft | 326 kts | 312° |
| 2026-05-07 07:06 | 45.83188 | 11.40522 | 17061 ft | 323 kts | 313° |
| 2026-05-07 07:07 | 45.84795 | 11.38272 | 16674 ft | 320 kts | 313° |
| 2026-05-07 07:07 | 45.86369 | 11.36064 | 16289 ft | 318 kts | 313° |
| 2026-05-07 07:07 | 45.87928 | 11.33874 | 15905 ft | 316 kts | 312° |
| 2026-05-07 07:07 | 45.89504 | 11.31660 | 15517 ft | 313 kts | 312° |
| 2026-05-07 07:08 | 45.91018 | 11.29532 | 15124 ft | 301 kts | 312° |
| 2026-05-07 07:08 | 45.92484 | 11.27473 | 14729 ft | 292 kts | 312° |
| 2026-05-07 07:08 | 45.93926 | 11.25442 | 14328 ft | 286 kts | 312° |
| 2026-05-07 07:08 | 45.95324 | 11.23471 | 13945 ft | 280 kts | 313° |
| 2026-05-07 07:09 | 45.96694 | 11.21536 | 13571 ft | 275 kts | 313° |
| 2026-05-07 07:09 | 45.98026 | 11.19657 | 13195 ft | 265 kts | 313° |
| 2026-05-07 07:09 | 45.99313 | 11.17843 | 12817 ft | 256 kts | 313° |
| 2026-05-07 07:09 | 46.00689 | 11.16264 | 12432 ft | 250 kts | 325° |
| 2026-05-07 07:10 | 46.02261 | 11.15276 | 12045 ft | 247 kts | 341° |
| 2026-05-07 07:10 | 46.03938 | 11.14952 | 11675 ft | 244 kts | 357° |
| 2026-05-07 07:10 | 46.05597 | 11.15247 | 11308 ft | 241 kts | 12° |
| 2026-05-07 07:10 | 46.07161 | 11.16084 | 10930 ft | 238 kts | 24° |
| 2026-05-07 07:11 | 46.08632 | 11.17144 | 10535 ft | 235 kts | 25° |
| 2026-05-07 07:11 | 46.10088 | 11.18133 | 10152 ft | 232 kts | 23° |
| 2026-05-07 07:11 | 46.11564 | 11.19030 | 9767 ft | 229 kts | 21° |
| 2026-05-07 07:11 | 46.13039 | 11.19855 | 9393 ft | 227 kts | 20° |
| 2026-05-07 07:12 | 46.14517 | 11.20650 | 9066 ft | 224 kts | 19° |
| 2026-05-07 07:12 | 46.15938 | 11.21405 | 8965 ft | 211 kts | 19° |
| 2026-05-07 07:12 | 46.17283 | 11.22119 | 8946 ft | 198 kts | 19° |
| 2026-05-07 07:12 | 46.18516 | 11.22970 | 8710 ft | 197 kts | 28° |
| 2026-05-07 07:13 | 46.19811 | 11.23428 | 8440 ft | 194 kts | 353° |
| 2026-05-07 07:13 | 46.20978 | 11.22591 | 8184 ft | 188 kts | 311° |
| 2026-05-07 07:13 | 46.21650 | 11.21023 | 7960 ft | 185 kts | 295° |
| 2026-05-07 07:13 | 46.22137 | 11.19362 | 7767 ft | 174 kts | 286° |
| 2026-05-07 07:14 | 46.22324 | 11.17688 | 7409 ft | 165 kts | 270° |
| 2026-05-07 07:14 | 46.22156 | 11.16112 | 7018 ft | 154 kts | 251° |
| 2026-05-07 07:14 | 46.21695 | 11.14782 | 6640 ft | 148 kts | 234° |
| 2026-05-07 07:14 | 46.21029 | 11.13697 | 6261 ft | 144 kts | 224° |
| 2026-05-07 07:15 | 46.20289 | 11.12731 | 5882 ft | 144 kts | 217° |
| 2026-05-07 07:15 | 46.19416 | 11.12036 | 5515 ft | 145 kts | 199° |
| 2026-05-07 07:15 | 46.18438 | 11.11690 | 5148 ft | 145 kts | 190° |
| 2026-05-07 07:15 | 46.17456 | 11.11418 | 4781 ft | 145 kts | 191° |
| 2026-05-07 07:16 | 46.16475 | 11.11077 | 4410 ft | 146 kts | 194° |
| 2026-05-07 07:16 | 46.15488 | 11.10758 | 4039 ft | 147 kts | 187° |
| 2026-05-07 07:16 | 46.14471 | 11.10662 | 3668 ft | 147 kts | 180° |
| 2026-05-07 07:16 | 46.13473 | 11.10650 | 3449 ft | 136 kts | 179° |
| 2026-05-07 07:17 | 46.12586 | 11.10637 | 3474 ft | 115 kts | 178° |
| 2026-05-07 07:17 | 46.11835 | 11.10746 | 3464 ft | 104 kts | 165° |
| 2026-05-07 07:17 | 46.11150 | 11.11060 | 3473 ft | 103 kts | 160° |
| 2026-05-07 07:17 | 46.10451 | 11.11317 | 3444 ft | 105 kts | 165° |
| 2026-05-07 07:18 | 46.09727 | 11.11550 | 3110 ft | 110 kts | 165° |
| 2026-05-07 07:18 | 46.08968 | 11.11792 | 2716 ft | 115 kts | 166° |
| 2026-05-07 07:18 | 46.08195 | 11.12038 | 2423 ft | 113 kts | 165° |
| 2026-05-07 07:18 | 46.07430 | 11.12281 | 2103 ft | 114 kts | 166° |
| 2026-05-07 07:19 | 46.06625 | 11.12538 | 1779 ft | 122 kts | 166° |
| 2026-05-07 07:19 | 46.05796 | 11.12556 | 1511 ft | 123 kts | 188° |
| 2026-05-07 07:19 | 46.04942 | 11.12459 | 1228 ft | 120 kts | 180° |
| 2026-05-07 07:19 | 46.04116 | 11.12478 | 965 ft | 119 kts | 178° |
| 2026-05-07 07:20 | 46.03301 | 11.12484 | 741 ft | 115 kts | 178° |
| 2026-05-07 07:20 | 46.02534 | 11.12489 | 627 ft | 101 kts | 178° |
| 2026-05-07 07:20 | 46.02067 | 11.12493 | 624 ft | 26 kts | 181° |
| 2026-05-07 07:20 | 46.01996 | 11.12525 | 624 ft | 7 kts | 97° |
| 2026-05-07 07:21 | 46.01995 | 11.12568 | 625 ft | 2 kts | 87° |
| 2026-05-07 07:21 | 46.02006 | 11.12603 | 626 ft | 5 kts | 51° |
| 2026-05-07 07:21 | 46.02012 | 11.12634 | 626 ft | 2 kts | 51° |
| 2026-05-07 07:21 | 46.02019 | 11.12644 | 627 ft | 0 kts | 45° |